Oriibu — JD2579 — position and weather

sailwx.info

Track history (hours):
 
Tides and Currents Weather Stations Pressure Air Temp Water Temp Dewpoint Dewpoint Depression Visibility Wind Speed Wind Dir Waves Ship Positions

Oriibu

Last reported at 2017-Apr-20 02:58 UTC. Time now 2017-Apr-29 21:29 UTC.
Position N 34°37' E 134°58'.
Warning: this ship's position is 9 days out of date.

Length 75 m; draft 4.5 m.

MMSI: 431000426.

Date/timePositionNaut miles runAvg speedWind from/ knotsBaromVisibWave heightAir tempDewpointWater temp
2017-Apr-20 02:58N 34°37' E 134°58'510.6
2017-Apr-20 02:30N 34°36' E 135°04'712.8
2017-Apr-20 02:00N 34°35' E 135°12'612.7
2017-Apr-20 01:29N 34°34' E 135°19'4 1.7
2017-Apr-19 23:04N 34°31' E 135°23'0 0.8
2017-Apr-19 22:59N 34°31' E 135°23'1 1.9
2017-Apr-19 22:27N 34°31' E 135°24'0 0.0
2017-Apr-19 06:57N 34°31' E 135°25'3 6.0
2017-Apr-19 06:30N 34°33' E 135°23'612.3
2017-Apr-19 05:58N 34°30' E 135°16'612.3
2017-Apr-19 05:29N 34°26' E 135°10'  
2017-Apr-16 16:49N 34°43' E 139°09'31 0.6
2017-Apr-14 12:57N 34°56' E 139°43'512.0
2017-Apr-14 12:30N 35°02' E 139°44'611.8
2017-Apr-14 12:00N 35°07' E 139°45'612.2
2017-Apr-14 11:30N 35°13' E 139°47'612.6
2017-Apr-14 11:00N 35°19' E 139°43'611.8
2017-Apr-14 10:30N 35°25' E 139°44'612.1
2017-Apr-14 10:01N 35°29' E 139°50'811.0
2017-Apr-14 09:19N 35°36' E 139°50'2 0.2
2017-Apr-14 02:10N 35°37' E 139°49'2 8.4
2017-Apr-14 01:59N 35°36' E 139°50'2 1.5
2017-Apr-14 00:44N 35°34' E 139°51'0 0.0
2017-Apr-13 23:38N 35°34' E 139°51'0 0.0
2017-Apr-13 23:14N 35°34' E 139°51'0 0.0
2017-Apr-13 22:59N 35°34' E 139°51'0 0.0
2017-Apr-13 22:29N 35°34' E 139°51'0 0.0
2017-Apr-13 21:59N 35°34' E 139°51'0 0.0
2017-Apr-13 21:29N 35°34' E 139°51'0 0.0
2017-Apr-13 20:56N 35°34' E 139°51'0 0.0
2017-Apr-13 20:29N 35°34' E 139°51'0 0.0
2017-Apr-13 19:59N 35°34' E 139°51'0 0.0
2017-Apr-13 19:29N 35°34' E 139°51'0 0.0
2017-Apr-13 18:59N 35°34' E 139°51'0 0.0
2017-Apr-13 18:29N 35°34' E 139°51'0 0.0
2017-Apr-13 17:50N 35°34' E 139°51'0 0.0
2017-Apr-13 17:23N 35°34' E 139°51'0 0.0
2017-Apr-13 16:59N 35°34' E 139°51'0 0.0
2017-Apr-13 16:29N 35°34' E 139°51'0 0.0
2017-Apr-13 15:41N 35°34' E 139°51'0 0.0
2017-Apr-13 15:29N 35°34' E 139°51'0 0.0
2017-Apr-13 14:59N 35°34' E 139°51'0 0.0
2017-Apr-13 14:29N 35°34' E 139°51'0 0.0
2017-Apr-13 13:02N 35°34' E 139°51'0 0.1
2017-Apr-13 12:59N 35°34' E 139°51'0 0.0
2017-Apr-13 12:29N 35°34' E 139°51'0 0.0
2017-Apr-13 11:47N 35°34' E 139°51'0 0.2
2017-Apr-13 11:29N 35°34' E 139°51'0 0.0
2017-Apr-13 10:59N 35°34' E 139°51'0 0.0
2017-Apr-13 10:23N 35°34' E 139°51'0 0.0
2017-Apr-13 09:59N 35°34' E 139°51'0 0.0
2017-Apr-13 06:59N 35°34' E 139°51'4 8.0
2017-Apr-13 06:30N 35°31' E 139°52'611.8
2017-Apr-13 06:00N 35°26' E 139°48'612.0
2017-Apr-13 05:31N 35°21' E 139°45'611.3
2017-Apr-13 05:01N 35°15' E 139°47'611.5
2017-Apr-13 04:30N 35°09' E 139°46'611.3
2017-Apr-13 04:01N 35°05' E 139°42'711.7
2017-Apr-13 03:27N 35°01' E 139°36'  
Track history (hours):
 
Tides and Currents Weather Stations Pressure Air Temp Water Temp Dewpoint Dewpoint Depression Visibility Wind Speed Wind Dir Waves Ship Positions

Oriibu

Last reported at 2017-Apr-20 02:58 UTC. Time now 2017-Apr-29 21:29 UTC.
Position N 34°37' E 134°58'.
Warning: this ship's position is 9 days out of date.

Length 75 m; draft 4.5 m.

MMSI: 431000426.

Date/timePositionNaut miles runAvg speedWind from/ knotsBaromVisibWave heightAir tempDewpointWater temp
2017-Apr-20 02:58N 34°37' E 134°58'510.6
2017-Apr-20 02:30N 34°36' E 135°04'712.8
2017-Apr-20 02:00N 34°35' E 135°12'612.7
2017-Apr-20 01:29N 34°34' E 135°19'4 1.7
2017-Apr-19 23:04N 34°31' E 135°23'0 0.8
2017-Apr-19 22:59N 34°31' E 135°23'1 1.9
2017-Apr-19 22:27N 34°31' E 135°24'0 0.0
2017-Apr-19 06:57N 34°31' E 135°25'3 6.0
2017-Apr-19 06:30N 34°33' E 135°23'612.3
2017-Apr-19 05:58N 34°30' E 135°16'612.3
2017-Apr-19 05:29N 34°26' E 135°10'  
2017-Apr-16 16:49N 34°43' E 139°09'31 0.6
2017-Apr-14 12:57N 34°56' E 139°43'512.0
2017-Apr-14 12:30N 35°02' E 139°44'611.8
2017-Apr-14 12:00N 35°07' E 139°45'612.2
2017-Apr-14 11:30N 35°13' E 139°47'612.6
2017-Apr-14 11:00N 35°19' E 139°43'611.8
2017-Apr-14 10:30N 35°25' E 139°44'612.1
2017-Apr-14 10:01N 35°29' E 139°50'811.0
2017-Apr-14 09:19N 35°36' E 139°50'2 0.2
2017-Apr-14 02:10N 35°37' E 139°49'2 8.4
2017-Apr-14 01:59N 35°36' E 139°50'2 1.5
2017-Apr-14 00:44N 35°34' E 139°51'0 0.0
2017-Apr-13 23:38N 35°34' E 139°51'0 0.0
2017-Apr-13 23:14N 35°34' E 139°51'0 0.0
2017-Apr-13 22:59N 35°34' E 139°51'0 0.0
2017-Apr-13 22:29N 35°34' E 139°51'0 0.0
2017-Apr-13 21:59N 35°34' E 139°51'0 0.0
2017-Apr-13 21:29N 35°34' E 139°51'0 0.0
2017-Apr-13 20:56N 35°34' E 139°51'0 0.0
2017-Apr-13 20:29N 35°34' E 139°51'0 0.0
2017-Apr-13 19:59N 35°34' E 139°51'0 0.0
2017-Apr-13 19:29N 35°34' E 139°51'0 0.0
2017-Apr-13 18:59N 35°34' E 139°51'0 0.0
2017-Apr-13 18:29N 35°34' E 139°51'0 0.0
2017-Apr-13 17:50N 35°34' E 139°51'0 0.0
2017-Apr-13 17:23N 35°34' E 139°51'0 0.0
2017-Apr-13 16:59N 35°34' E 139°51'0 0.0
2017-Apr-13 16:29N 35°34' E 139°51'0 0.0
2017-Apr-13 15:41N 35°34' E 139°51'0 0.0
2017-Apr-13 15:29N 35°34' E 139°51'0 0.0
2017-Apr-13 14:59N 35°34' E 139°51'0 0.0
2017-Apr-13 14:29N 35°34' E 139°51'0 0.0
2017-Apr-13 13:02N 35°34' E 139°51'0 0.1
2017-Apr-13 12:59N 35°34' E 139°51'0 0.0
2017-Apr-13 12:29N 35°34' E 139°51'0 0.0
2017-Apr-13 11:47N 35°34' E 139°51'0 0.2
2017-Apr-13 11:29N 35°34' E 139°51'0 0.0
2017-Apr-13 10:59N 35°34' E 139°51'0 0.0
2017-Apr-13 10:23N 35°34' E 139°51'0 0.0
2017-Apr-13 09:59N 35°34' E 139°51'0 0.0
2017-Apr-13 06:59N 35°34' E 139°51'4 8.0
2017-Apr-13 06:30N 35°31' E 139°52'611.8
2017-Apr-13 06:00N 35°26' E 139°48'612.0
2017-Apr-13 05:31N 35°21' E 139°45'611.3
2017-Apr-13 05:01N 35°15' E 139°47'611.5
2017-Apr-13 04:30N 35°09' E 139°46'611.3
2017-Apr-13 04:01N 35°05' E 139°42'711.7
2017-Apr-13 03:27N 35°01' E 139°36'  

Dump ship's entire track history